Private Wetterstation Sandau
Wetterdaten: Freitag, 23.11.2012
Datum Zeit Temp. A. Feuchte A. Luftdruck Regen Wind Richtung Richtung Taupunkt Windchill
23.11.2012 00:01 2,1 C 92 % 1023,3 hPa 0,0 l/m 4,3 km/h (1 Bft) SO 135 0,9 C 2,1 C
23.11.2012 00:06 2,1 C 92 % 1023,4 hPa 0,0 l/m 2,9 km/h (1 Bft) S-SO 157 0,9 C 2,1 C
23.11.2012 00:11 2,2 C 92 % 1023,4 hPa 0,0 l/m 2,5 km/h (1 Bft) S-SO 157 1,0 C 2,2 C
23.11.2012 00:16 2,3 C 92 % 1023,4 hPa 0,0 l/m 1,4 km/h (1 Bft) S-SO 157 1,1 C 2,3 C
23.11.2012 00:21 2,3 C 92 % 1023,3 hPa 0,0 l/m 4,7 km/h (1 Bft) S-SO 157 1,1 C 1,2 C
23.11.2012 00:26 2,4 C 92 % 1023,4 hPa 0,0 l/m 1,1 km/h (1 Bft) SO 135 1,2 C 2,4 C
23.11.2012 00:31 2,3 C 92 % 1023,3 hPa 0,0 l/m 0,0 km/h (0 Bft) SO 135 1,1 C 2,3 C
23.11.2012 00:36 2,3 C 92 % 1023,3 hPa 0,0 l/m 0,0 km/h (0 Bft) SO 135 1,1 C 2,3 C
23.11.2012 00:41 2,1 C 92 % 1023,3 hPa 0,0 l/m 0,0 km/h (0 Bft) O-SO 112 0,9 C 2,1 C
23.11.2012 00:46 2,1 C 92 % 1023,1 hPa 0,0 l/m 1,4 km/h (1 Bft) SO 135 0,9 C 2,1 C
23.11.2012 00:51 1,9 C 92 % 1023,0 hPa 0,0 l/m 1,4 km/h (1 Bft) SO 135 0,7 C 1,9 C
23.11.2012 00:56 1,9 C 92 % 1023,2 hPa 0,0 l/m 3,2 km/h (1 Bft) SO 135 0,7 C 1,9 C
23.11.2012 01:01 1,8 C 92 % 1023,1 hPa 0,0 l/m 0,0 km/h (0 Bft) S-SO 157 0,6 C 1,8 C
23.11.2012 01:06 1,8 C 92 % 1023,2 hPa 0,0 l/m 0,0 km/h (0 Bft) SO 135 0,6 C 1,8 C
23.11.2012 01:11 1,6 C 92 % 1023,2 hPa 0,0 l/m 2,2 km/h (1 Bft) O-SO 112 0,4 C 1,6 C
23.11.2012 01:16 1,6 C 92 % 1023,2 hPa 0,0 l/m 0,0 km/h (0 Bft) SO 135 0,4 C 1,6 C
23.11.2012 01:21 1,4 C 92 % 1023,3 hPa 0,0 l/m 0,0 km/h (0 Bft) SO 135 0,2 C 1,4 C
23.11.2012 01:26 1,3 C 92 % 1023,1 hPa 0,0 l/m 3,6 km/h (1 Bft) SO 135 0,1 C 1,3 C
23.11.2012 01:31 1,3 C 92 % 1023,1 hPa 0,0 l/m 1,8 km/h (1 Bft) SO 135 0,1 C 1,3 C
23.11.2012 01:36 1,1 C 92 % 1023,1 hPa 0,0 l/m 0,0 km/h (0 Bft) SO 135 -0,1 C 1,1 C
23.11.2012 01:41 0,9 C 92 % 1023,2 hPa 0,0 l/m 1,4 km/h (1 Bft) SO 135 -0,2 C 0,9 C
23.11.2012 01:46 0,9 C 92 % 1023,1 hPa 0,0 l/m 4,3 km/h (1 Bft) SO 135 -0,2 C 0,9 C
23.11.2012 01:51 0,9 C 92 % 1023,1 hPa 0,0 l/m 2,5 km/h (1 Bft) SO 135 -0,2 C 0,9 C
23.11.2012 01:56 0,9 C 92 % 1023,2 hPa 0,0 l/m 3,6 km/h (1 Bft) O-SO 112 -0,2 C 0,9 C
23.11.2012 02:01 0,9 C 92 % 1023,3 hPa 0,0 l/m 2,2 km/h (1 Bft) O-SO 112 -0,2 C 0,9 C
23.11.2012 02:06 0,8 C 92 % 1023,1 hPa 0,0 l/m 2,5 km/h (1 Bft) O-SO 112 -0,3 C 0,8 C
23.11.2012 02:11 0,8 C 92 % 1023,0 hPa 0,0 l/m 3,2 km/h (1 Bft) O-SO 112 -0,3 C 0,8 C
23.11.2012 02:16 0,7 C 92 % 1023,0 hPa 0,0 l/m 3,2 km/h (1 Bft) SO 135 -0,4 C 0,7 C
23.11.2012 02:21 0,6 C 92 % 1022,9 hPa 0,0 l/m 2,2 km/h (1 Bft) O-SO 112 -0,5 C 0,6 C
23.11.2012 02:26 0,6 C 92 % 1022,9 hPa 0,0 l/m 2,9 km/h (1 Bft) O-SO 112 -0,5 C 0,6 C
23.11.2012 02:31 0,6 C 92 % 1023,0 hPa 0,0 l/m 1,1 km/h (1 Bft) O-SO 112 -0,5 C 0,6 C
23.11.2012 02:36 0,6 C 93 % 1022,9 hPa 0,0 l/m 4,0 km/h (1 Bft) O-SO 112 -0,4 C 0,6 C
23.11.2012 02:41 0,5 C 93 % 1022,9 hPa 0,0 l/m 0,0 km/h (0 Bft) SO 135 -0,5 C 0,5 C
23.11.2012 02:46 0,5 C 93 % 1022,9 hPa 0,0 l/m 0,0 km/h (0 Bft) SO 135 -0,5 C 0,5 C
23.11.2012 02:51 0,4 C 93 % 1022,8 hPa 0,0 l/m 3,2 km/h (1 Bft) O-SO 112 -0,6 C 0,4 C
23.11.2012 02:56 0,4 C 93 % 1022,6 hPa 0,0 l/m 4,0 km/h (1 Bft) O-SO 112 -0,6 C 0,4 C
23.11.2012 03:01 0,3 C 93 % 1022,6 hPa 0,0 l/m 2,2 km/h (1 Bft) O-SO 112 -0,7 C 0,3 C
23.11.2012 03:06 0,3 C 92 % 1022,6 hPa 0,0 l/m 2,5 km/h (1 Bft) O-SO 112 -0,8 C 0,3 C
23.11.2012 03:11 0,3 C 92 % 1022,6 hPa 0,0 l/m 2,2 km/h (1 Bft) S-SO 157 -0,8 C 0,3 C
23.11.2012 03:16 0,3 C 92 % 1022,6 hPa 0,0 l/m 3,2 km/h (1 Bft) SO 135 -0,8 C 0,3 C
23.11.2012 03:21 0,3 C 92 % 1022,6 hPa 0,0 l/m 0,0 km/h (0 Bft) SO 135 -0,8 C 0,3 C
23.11.2012 03:26 0,3 C 92 % 1022,5 hPa 0,0 l/m 4,0 km/h (1 Bft) O-SO 112 -0,8 C 0,3 C
23.11.2012 03:31 0,3 C 92 % 1022,3 hPa 0,0 l/m 4,7 km/h (1 Bft) O 90 -0,8 C -1,1 C
23.11.2012 03:36 0,2 C 92 % 1022,3 hPa 0,0 l/m 0,0 km/h (0 Bft) SO 135 -0,9 C 0,2 C
23.11.2012 03:41 0,2 C 92 % 1022,3 hPa 0,0 l/m 2,2 km/h (1 Bft) SO 135 -0,9 C 0,2 C
23.11.2012 03:46 0,2 C 92 % 1022,3 hPa 0,0 l/m 2,5 km/h (1 Bft) O-SO 112 -0,9 C 0,2 C
23.11.2012 03:51 0,2 C 92 % 1022,2 hPa 0,0 l/m 2,5 km/h (1 Bft) O-SO 112 -0,9 C 0,2 C
23.11.2012 03:56 0,2 C 92 % 1022,2 hPa 0,0 l/m 3,2 km/h (1 Bft) S-SO 157 -0,9 C 0,2 C
23.11.2012 04:01 0,2 C 93 % 1021,8 hPa 0,0 l/m 5,0 km/h (1 Bft) O-SO 112 -0,8 C -1,4 C
23.11.2012 04:06 0,1 C 93 % 1021,8 hPa 0,0 l/m 0,0 km/h (0 Bft) O-SO 112 -0,9 C 0,1 C
23.11.2012 04:11 0,1 C 93 % 1021,8 hPa 0,0 l/m 4,7 km/h (1 Bft) O-SO 112 -0,9 C -1,3 C
23.11.2012 04:16 0,1 C 93 % 1021,8 hPa 0,0 l/m 3,2 km/h (1 Bft) SO 135 -0,9 C 0,1 C
23.11.2012 04:21 0,1 C 93 % 1021,7 hPa 0,0 l/m 4,7 km/h (1 Bft) O-SO 112 -0,9 C -1,3 C
23.11.2012 04:26 0,1 C 93 % 1021,6 hPa 0,0 l/m 2,5 km/h (1 Bft) O-SO 112 -0,9 C 0,1 C
23.11.2012 04:31 0,0 C 93 % 1021,5 hPa 0,0 l/m 5,0 km/h (1 Bft) SO 135 -1,0 C -1,6 C
23.11.2012 04:36 0,0 C 93 % 1021,4 hPa 0,0 l/m 5,0 km/h (1 Bft) O-SO 112 -1,0 C -1,6 C
23.11.2012 04:41 0,0 C 93 % 1021,4 hPa 0,0 l/m 5,0 km/h (1 Bft) S-SO 157 -1,0 C -1,6 C
23.11.2012 04:46 0,0 C 93 % 1021,2 hPa 0,0 l/m 2,5 km/h (1 Bft) SO 135 -1,0 C 0,0 C
23.11.2012 04:51 0,1 C 93 % 1021,4 hPa 0,0 l/m 0,0 km/h (0 Bft) S-SO 157 -0,9 C 0,1 C
23.11.2012 04:56 0,1 C 93 % 1021,5 hPa 0,0 l/m 4,7 km/h (1 Bft) SO 135 -0,9 C -1,3 C
23.11.2012 05:01 0,1 C 93 % 1021,5 hPa 0,0 l/m 2,2 km/h (1 Bft) O-SO 112 -0,9 C 0,1 C
23.11.2012 05:06 -0,1 C 93 % 1021,3 hPa 0,0 l/m 5,4 km/h (1 Bft) O-SO 112 -1,1 C -1,9 C
23.11.2012 05:11 -0,1 C 93 % 1021,2 hPa 0,0 l/m 4,3 km/h (1 Bft) O 90 -1,1 C -0,1 C
23.11.2012 05:16 -0,1 C 93 % 1021,2 hPa 0,0 l/m 2,9 km/h (1 Bft) O-SO 112 -1,1 C -0,1 C
23.11.2012 05:21 -0,1 C 93 % 1021,1 hPa 0,0 l/m 0,0 km/h (0 Bft) SO 135 -1,1 C -0,1 C
23.11.2012 05:26 -0,1 C 93 % 1021,0 hPa 0,0 l/m 2,9 km/h (1 Bft) O-SO 112 -1,1 C -0,1 C
23.11.2012 05:31 -0,1 C 93 % 1021,1 hPa 0,0 l/m 2,5 km/h (1 Bft) SO 135 -1,1 C -0,1 C
23.11.2012 05:36 -0,1 C 93 % 1021,1 hPa 0,0 l/m 1,8 km/h (1 Bft) O 90 -1,1 C -0,1 C
23.11.2012 05:41 -0,2 C 93 % 1021,1 hPa 0,0 l/m 1,1 km/h (1 Bft) O-SO 112 -1,2 C -0,2 C
23.11.2012 05:46 -0,2 C 93 % 1021,1 hPa 0,0 l/m 0,0 km/h (0 Bft) S-SO 157 -1,2 C -0,2 C
23.11.2012 05:51 -0,2 C 93 % 1021,1 hPa 0,0 l/m 2,2 km/h (1 Bft) S-SO 157 -1,2 C -0,2 C
23.11.2012 05:56 -0,2 C 93 % 1021,4 hPa 0,0 l/m 0,0 km/h (0 Bft) S-SO 157 -1,2 C -0,2 C
23.11.2012 06:01 -0,2 C 93 % 1021,1 hPa 0,0 l/m 0,0 km/h (0 Bft) S-SO 157 -1,2 C -0,2 C
23.11.2012 06:06 -0,2 C 93 % 1021,3 hPa 0,0 l/m 3,2 km/h (1 Bft) S-SO 157 -1,2 C -0,2 C
23.11.2012 06:11 -0,2 C 93 % 1021,1 hPa 0,0 l/m 5,0 km/h (1 Bft) S-SO 157 -1,2 C -1,8 C
23.11.2012 06:16 -0,1 C 93 % 1021,0 hPa 0,0 l/m 5,4 km/h (1 Bft) SO 135 -1,1 C -1,9 C
23.11.2012 06:21 0,1 C 93 % 1021,0 hPa 0,0 l/m 3,6 km/h (1 Bft) S-SO 157 -0,9 C 0,1 C
23.11.2012 06:26 0,2 C 93 % 1020,9 hPa 0,0 l/m 5,0 km/h (1 Bft) S-SO 157 -0,8 C -1,4 C
23.11.2012 06:31 0,4 C 93 % 1021,0 hPa 0,0 l/m 3,6 km/h (1 Bft) S-SO 157 -0,6 C 0,4 C
23.11.2012 06:36 0,4 C 93 % 1021,1 hPa 0,0 l/m 3,6 km/h (1 Bft) S-SO 157 -0,6 C 0,4 C
23.11.2012 06:41 0,5 C 93 % 1021,0 hPa 0,0 l/m 5,0 km/h (1 Bft) S-SO 157 -0,5 C -1,0 C
23.11.2012 06:46 0,5 C 93 % 1021,1 hPa 0,0 l/m 4,3 km/h (1 Bft) SO 135 -0,5 C 0,5 C
23.11.2012 06:51 0,5 C 93 % 1021,0 hPa 0,0 l/m 2,2 km/h (1 Bft) S 180 -0,5 C 0,5 C
23.11.2012 06:56 0,5 C 93 % 1021,0 hPa 0,0 l/m 4,0 km/h (1 Bft) S-SO 157 -0,5 C 0,5 C
23.11.2012 07:01 0,5 C 93 % 1021,0 hPa 0,0 l/m 2,2 km/h (1 Bft) SO 135 -0,5 C 0,5 C
23.11.2012 07:06 0,4 C 93 % 1021,0 hPa 0,0 l/m 3,6 km/h (1 Bft) SO 135 -0,6 C 0,4 C
23.11.2012 07:11 0,3 C 93 % 1021,0 hPa 0,0 l/m 1,8 km/h (1 Bft) SO 135 -0,7 C 0,3 C
23.11.2012 07:16 0,4 C 93 % 1020,9 hPa 0,0 l/m 4,7 km/h (1 Bft) SO 135 -0,6 C -1,0 C
23.11.2012 07:21 0,5 C 93 % 1020,9 hPa 0,0 l/m 1,4 km/h (1 Bft) SO 135 -0,5 C 0,5 C
23.11.2012 07:26 0,5 C 93 % 1021,1 hPa 0,0 l/m 0,0 km/h (0 Bft) SO 135 -0,5 C 0,5 C
23.11.2012 07:31 0,5 C 93 % 1021,1 hPa 0,0 l/m 1,4 km/h (1 Bft) S-SO 157 -0,5 C 0,5 C
23.11.2012 07:36 0,5 C 93 % 1021,3 hPa 0,0 l/m 0,0 km/h (0 Bft) SO 135 -0,5 C 0,5 C
23.11.2012 07:41 0,4 C 93 % 1021,1 hPa 0,0 l/m 4,0 km/h (1 Bft) O-SO 112 -0,6 C 0,4 C
23.11.2012 07:46 0,4 C 93 % 1021,2 hPa 0,0 l/m 1,4 km/h (1 Bft) O 90 -0,6 C 0,4 C
23.11.2012 07:51 0,3 C 93 % 1021,2 hPa 0,0 l/m 4,0 km/h (1 Bft) O 90 -0,7 C 0,3 C
23.11.2012 07:56 0,3 C 93 % 1021,1 hPa 0,0 l/m 5,4 km/h (1 Bft) SO 135 -0,7 C -1,4 C
23.11.2012 08:01 0,2 C 93 % 1021,1 hPa 0,0 l/m 4,0 km/h (1 Bft) SO 135 -0,8 C 0,2 C
23.11.2012 08:06 0,1 C 93 % 1021,1 hPa 0,0 l/m 4,0 km/h (1 Bft) O 90 -0,9 C 0,1 C
23.11.2012 08:11 0,1 C 93 % 1021,1 hPa 0,0 l/m 2,9 km/h (1 Bft) O-SO 112 -0,9 C 0,1 C
23.11.2012 08:16 0,0 C 93 % 1020,9 hPa 0,0 l/m 7,9 km/h (2 Bft) SO 135 -1,0 C -2,7 C
23.11.2012 08:21 0,1 C 93 % 1020,9 hPa 0,0 l/m 3,6 km/h (1 Bft) SO 135 -0,9 C 0,1 C
23.11.2012 08:26 0,1 C 93 % 1021,0 hPa 0,0 l/m 3,2 km/h (1 Bft) O-SO 112 -0,9 C 0,1 C
23.11.2012 08:31 0,1 C 93 % 1020,8 hPa 0,0 l/m 0,0 km/h (0 Bft) S-SO 157 -0,9 C 0,1 C
23.11.2012 08:36 0,2 C 93 % 1021,0 hPa 0,0 l/m 5,0 km/h (1 Bft) SO 135 -0,8 C -1,4 C
23.11.2012 08:41 0,2 C 93 % 1020,9 hPa 0,0 l/m 5,0 km/h (1 Bft) O-SO 112 -0,8 C -1,4 C
23.11.2012 08:46 0,2 C 93 % 1020,8 hPa 0,0 l/m 6,1 km/h (2 Bft) SO 135 -0,8 C -1,8 C
23.11.2012 08:51 0,2 C 93 % 1020,9 hPa 0,0 l/m 6,1 km/h (2 Bft) SO 135 -0,8 C -1,8 C
23.11.2012 08:56 0,2 C 93 % 1021,0 hPa 0,0 l/m 2,2 km/h (1 Bft) SO 135 -0,8 C 0,2 C
23.11.2012 09:01 0,2 C 93 % 1020,8 hPa 0,0 l/m 7,9 km/h (2 Bft) O-SO 112 -0,8 C -2,5 C
23.11.2012 09:06 0,3 C 93 % 1020,7 hPa 0,0 l/m 1,8 km/h (1 Bft) O-SO 112 -0,7 C 0,3 C
23.11.2012 09:11 0,3 C 93 % 1020,7 hPa 0,0 l/m 5,4 km/h (1 Bft) O-SO 112 -0,7 C -1,4 C
23.11.2012 09:16 0,3 C 93 % 1020,7 hPa 0,0 l/m 5,8 km/h (2 Bft) O-SO 112 -0,7 C -1,6 C
23.11.2012 09:21 0,4 C 93 % 1020,7 hPa 0,0 l/m 2,5 km/h (1 Bft) SO 135 -0,6 C 0,4 C
23.11.2012 09:26 0,4 C 93 % 1020,6 hPa 0,0 l/m 6,1 km/h (2 Bft) SO 135 -0,6 C -1,6 C
23.11.2012 09:31 0,5 C 94 % 1020,6 hPa 0,0 l/m 4,7 km/h (1 Bft) S-SO 157 -0,4 C -0,9 C
23.11.2012 09:36 0,6 C 94 % 1020,6 hPa 0,0 l/m 4,7 km/h (1 Bft) SO 135 -0,3 C -0,8 C
23.11.2012 09:41 0,6 C 94 % 1020,4 hPa 0,0 l/m 3,6 km/h (1 Bft) O-SO 112 -0,3 C 0,6 C
23.11.2012 09:46 0,8 C 94 % 1020,4 hPa 0,0 l/m 3,2 km/h (1 Bft) O-SO 112 -0,1 C 0,8 C
23.11.2012 09:51 0,9 C 93 % 1020,4 hPa 0,0 l/m 3,2 km/h (1 Bft) O-SO 112 -0,1 C 0,9 C
23.11.2012 09:56 0,9 C 93 % 1020,5 hPa 0,0 l/m 4,3 km/h (1 Bft) SO 135 -0,1 C 0,9 C
23.11.2012 10:01 1,1 C 93 % 1020,6 hPa 0,0 l/m 7,6 km/h (2 Bft) SO 135 0,1 C -1,3 C
23.11.2012 10:06 1,2 C 93 % 1020,7 hPa 0,0 l/m 2,2 km/h (1 Bft) SO 135 0,2 C 1,2 C
23.11.2012 10:11 1,3 C 93 % 1020,7 hPa 0,0 l/m 7,6 km/h (2 Bft) SO 135 0,3 C -1,1 C
23.11.2012 10:16 1,3 C 93 % 1020,6 hPa 0,0 l/m 3,6 km/h (1 Bft) SO 135 0,3 C 1,3 C
23.11.2012 10:21 1,6 C 93 % 1020,5 hPa 0,0 l/m 7,6 km/h (2 Bft) SO 135 0,6 C -0,7 C
23.11.2012 10:26 1,9 C 94 % 1020,3 hPa 0,0 l/m 3,6 km/h (1 Bft) SO 135 1,0 C 1,9 C
23.11.2012 10:31 2,1 C 94 % 1020,2 hPa 0,0 l/m 7,6 km/h (2 Bft) S-SO 157 1,2 C -0,2 C
23.11.2012 10:36 2,4 C 94 % 1020,3 hPa 0,0 l/m 4,7 km/h (1 Bft) S-SO 157 1,5 C 1,3 C
23.11.2012 10:41 2,4 C 94 % 1020,2 hPa 0,0 l/m 4,0 km/h (1 Bft) S-SO 157 1,5 C 2,4 C
23.11.2012 10:46 2,6 C 94 % 1020,2 hPa 0,0 l/m 8,6 km/h (2 Bft) S-SO 157 1,7 C 0,1 C
23.11.2012 10:51 2,8 C 94 % 1020,1 hPa 0,0 l/m 10,8 km/h (2 Bft) SO 135 1,9 C -0,2 C
23.11.2012 10:56 2,9 C 94 % 1020,1 hPa 0,0 l/m 9,4 km/h (2 Bft) SO 135 2,0 C 0,3 C
23.11.2012 11:01 3,1 C 93 % 1020,0 hPa 0,0 l/m 5,0 km/h (1 Bft) SO 135 2,1 C 1,9 C
23.11.2012 11:06 3,1 C 93 % 1020,2 hPa 0,0 l/m 12,2 km/h (2 Bft) S-SO 157 2,1 C -0,1 C
23.11.2012 11:11 3,2 C 93 % 1020,2 hPa 0,0 l/m 11,9 km/h (2 Bft) SO 135 2,2 C 0,1 C
23.11.2012 11:16 3,3 C 93 % 1020,1 hPa 0,0 l/m 4,7 km/h (1 Bft) SO 135 2,3 C 2,3 C
23.11.2012 11:21 3,4 C 93 % 1020,1 hPa 0,0 l/m 8,6 km/h (2 Bft) SO 135 2,4 C 1,1 C
23.11.2012 11:26 3,6 C 93 % 1020,2 hPa 0,0 l/m 8,3 km/h (2 Bft) S-SO 157 2,6 C 1,4 C
23.11.2012 11:31 3,6 C 93 % 1020,1 hPa 0,0 l/m 5,0 km/h (1 Bft) S-SO 157 2,6 C 2,5 C
23.11.2012 11:36 3,8 C 92 % 1020,1 hPa 0,0 l/m 9,4 km/h (2 Bft) SO 135 2,6 C 1,4 C
23.11.2012 11:41 3,9 C 92 % 1020,1 hPa 0,0 l/m 3,2 km/h (1 Bft) S-SO 157 2,7 C 3,9 C
23.11.2012 11:46 4,1 C 92 % 1019,9 hPa 0,0 l/m 3,2 km/h (1 Bft) S-SO 157 2,9 C 4,1 C
23.11.2012 11:51 4,1 C 92 % 1019,8 hPa 0,0 l/m 8,3 km/h (2 Bft) SO 135 2,9 C 2,0 C
23.11.2012 11:56 4,3 C 92 % 1019,7 hPa 0,0 l/m 6,5 km/h (2 Bft) SO 135 3,1 C 2,8 C
23.11.2012 12:01 4,4 C 92 % 1019,6 hPa 0,0 l/m 5,4 km/h (1 Bft) SO 135 3,2 C 3,2 C
23.11.2012 12:06 4,5 C 92 % 1019,6 hPa 0,0 l/m 5,8 km/h (2 Bft) SO 135 3,3 C 3,2 C
23.11.2012 12:11 4,6 C 91 % 1019,5 hPa 0,0 l/m 5,8 km/h (2 Bft) S-SO 157 3,3 C 3,3 C
23.11.2012 12:16 4,8 C 91 % 1019,4 hPa 0,0 l/m 14,4 km/h (3 Bft) SO 135 3,5 C 1,6 C
23.11.2012 12:21 4,9 C 90 % 1019,4 hPa 0,0 l/m 12,6 km/h (3 Bft) S-SO 157 3,4 C 2,0 C
23.11.2012 12:26 4,9 C 90 % 1019,4 hPa 0,0 l/m 6,5 km/h (2 Bft) SO 135 3,4 C 3,4 C
23.11.2012 12:31 5,0 C 90 % 1019,2 hPa 0,0 l/m 12,2 km/h (2 Bft) S-SO 157 3,5 C 2,2 C
23.11.2012 12:36 5,1 C 90 % 1019,0 hPa 0,0 l/m 14,8 km/h (3 Bft) SO 135 3,6 C 1,9 C
23.11.2012 12:41 5,3 C 90 % 1019,1 hPa 0,0 l/m 3,2 km/h (1 Bft) S-SW 202 3,8 C 5,3 C
23.11.2012 12:46 5,4 C 90 % 1019,3 hPa 0,0 l/m 6,5 km/h (2 Bft) S-SO 157 3,9 C 4,0 C
23.11.2012 12:51 5,5 C 90 % 1019,3 hPa 0,0 l/m 5,8 km/h (2 Bft) S-SO 157 4,0 C 4,4 C
23.11.2012 12:56 5,5 C 89 % 1019,3 hPa 0,0 l/m 3,6 km/h (1 Bft) SW 225 3,8 C 5,5 C
23.11.2012 13:01 5,6 C 89 % 1019,3 hPa 0,0 l/m 4,7 km/h (1 Bft) S-SW 202 3,9 C 4,9 C
23.11.2012 13:06 5,5 C 89 % 1019,2 hPa 0,0 l/m 5,8 km/h (2 Bft) SW 225 3,8 C 4,4 C
23.11.2012 13:11 5,5 C 89 % 1019,2 hPa 0,0 l/m 4,3 km/h (1 Bft) S-SW 202 3,8 C 5,5 C
23.11.2012 13:16 5,6 C 89 % 1019,3 hPa 0,0 l/m 1,1 km/h (1 Bft) S 180 3,9 C 5,6 C
23.11.2012 13:21 5,6 C 89 % 1019,2 hPa 0,0 l/m 3,2 km/h (1 Bft) S-SW 202 3,9 C 5,6 C
23.11.2012 13:26 5,6 C 89 % 1019,2 hPa 0,0 l/m 4,0 km/h (1 Bft) S-SO 157 3,9 C 5,6 C
23.11.2012 13:31 5,6 C 89 % 1019,1 hPa 0,0 l/m 3,6 km/h (1 Bft) SO 135 3,9 C 5,6 C
23.11.2012 13:36 5,6 C 89 % 1019,2 hPa 0,0 l/m 3,6 km/h (1 Bft) S-SO 157 3,9 C 5,6 C
23.11.2012 13:41 5,6 C 89 % 1019,1 hPa 0,0 l/m 5,8 km/h (2 Bft) S-SO 157 3,9 C 4,5 C
23.11.2012 13:46 5,6 C 89 % 1018,8 hPa 0,0 l/m 5,0 km/h (1 Bft) SO 135 3,9 C 4,8 C
23.11.2012 13:51 5,6 C 89 % 1018,9 hPa 0,0 l/m 7,2 km/h (2 Bft) SO 135 3,9 C 4,1 C
23.11.2012 13:56 5,6 C 89 % 1018,7 hPa 0,0 l/m 6,8 km/h (2 Bft) S 180 3,9 C 4,2 C
23.11.2012 14:01 5,6 C 89 % 1018,7 hPa 0,0 l/m 9,4 km/h (2 Bft) S 180 3,9 C 3,5 C
23.11.2012 14:06 5,6 C 89 % 1019,1 hPa 0,0 l/m 3,2 km/h (1 Bft) S 180 3,9 C 5,6 C
23.11.2012 14:11 5,6 C 89 % 1019,1 hPa 0,0 l/m 4,3 km/h (1 Bft) S-SW 202 3,9 C 5,6 C
23.11.2012 14:16 5,6 C 89 % 1018,9 hPa 0,0 l/m 7,2 km/h (2 Bft) S-SW 202 3,9 C 4,1 C
23.11.2012 14:21 5,6 C 89 % 1018,8 hPa 0,0 l/m 6,5 km/h (2 Bft) S-SO 157 3,9 C 4,3 C
23.11.2012 14:26 5,6 C 89 % 1018,9 hPa 0,0 l/m 8,3 km/h (2 Bft) SO 135 3,9 C 3,8 C
23.11.2012 14:31 5,5 C 89 % 1018,9 hPa 0,0 l/m 4,7 km/h (1 Bft) SO 135 3,8 C 4,8 C
23.11.2012 14:36 5,5 C 89 % 1018,8 hPa 0,0 l/m 6,5 km/h (2 Bft) S-SO 157 3,8 C 4,1 C
23.11.2012 14:41 5,4 C 89 % 1018,9 hPa 0,0 l/m 6,1 km/h (2 Bft) S-SO 157 3,7 C 4,2 C
23.11.2012 14:46 5,4 C 89 % 1018,9 hPa 0,0 l/m 5,4 km/h (1 Bft) S-SO 157 3,7 C 4,4 C
23.11.2012 14:51 5,3 C 89 % 1019,1 hPa 0,0 l/m 2,2 km/h (1 Bft) S-SO 157 3,6 C 5,3 C
23.11.2012 14:56 5,3 C 89 % 1018,9 hPa 0,0 l/m 13,7 km/h (3 Bft) S 180 3,6 C 2,3 C
23.11.2012 15:01 5,3 C 89 % 1018,9 hPa 0,0 l/m 2,9 km/h (1 Bft) S-SO 157 3,6 C 5,3 C
23.11.2012 15:06 5,2 C 89 % 1019,0 hPa 0,0 l/m 4,0 km/h (1 Bft) SO 135 3,5 C 5,2 C
23.11.2012 15:11 5,1 C 89 % 1018,8 hPa 0,0 l/m 6,1 km/h (2 Bft) S 180 3,4 C 3,8 C
23.11.2012 15:16 5,1 C 89 % 1018,6 hPa 0,0 l/m 6,5 km/h (2 Bft) S-SO 157 3,4 C 3,7 C
23.11.2012 15:21 5,1 C 89 % 1018,6 hPa 0,0 l/m 8,6 km/h (2 Bft) S-SO 157 3,4 C 3,1 C
23.11.2012 15:26 5,0 C 89 % 1018,5 hPa 0,0 l/m 8,6 km/h (2 Bft) S-SO 157 3,3 C 3,0 C
23.11.2012 15:31 5,0 C 89 % 1018,4 hPa 0,0 l/m 2,9 km/h (1 Bft) S-SW 202 3,3 C 5,0 C
23.11.2012 15:36 4,9 C 89 % 1018,4 hPa 0,0 l/m 4,3 km/h (1 Bft) S-SW 202 3,2 C 4,9 C
23.11.2012 15:41 4,9 C 89 % 1018,5 hPa 0,0 l/m 7,9 km/h (2 Bft) SO 135 3,2 C 3,0 C
23.11.2012 15:46 4,9 C 89 % 1018,4 hPa 0,0 l/m 2,5 km/h (1 Bft) S-SW 202 3,2 C 4,9 C
23.11.2012 15:51 4,9 C 89 % 1018,5 hPa 0,0 l/m 4,7 km/h (1 Bft) SO 135 3,2 C 4,1 C
23.11.2012 15:56 4,9 C 89 % 1018,5 hPa 0,0 l/m 6,8 km/h (2 Bft) S-SO 157 3,2 C 3,4 C
23.11.2012 16:01 4,9 C 89 % 1018,6 hPa 0,0 l/m 8,6 km/h (2 Bft) S 180 3,2 C 2,9 C
23.11.2012 16:06 4,9 C 89 % 1018,6 hPa 0,0 l/m 1,4 km/h (1 Bft) S-SW 202 3,2 C 4,9 C
23.11.2012 16:11 4,9 C 89 % 1018,5 hPa 0,0 l/m 5,0 km/h (1 Bft) S 180 3,2 C 4,0 C
23.11.2012 16:16 4,8 C 89 % 1018,5 hPa 0,0 l/m 4,0 km/h (1 Bft) S 180 3,1 C 4,8 C
23.11.2012 16:21 4,8 C 89 % 1018,6 hPa 0,0 l/m 8,6 km/h (2 Bft) S-SO 157 3,1 C 2,7 C
23.11.2012 16:26 4,7 C 89 % 1018,6 hPa 0,0 l/m 3,2 km/h (1 Bft) S-SO 157 3,0 C 4,7 C
23.11.2012 16:31 4,7 C 90 % 1018,7 hPa 0,0 l/m 0,0 km/h (0 Bft) S 180 3,2 C 4,7 C
23.11.2012 16:36 4,7 C 90 % 1018,6 hPa 0,0 l/m 3,2 km/h (1 Bft) SO 135 3,2 C 4,7 C
23.11.2012 16:41 4,6 C 90 % 1018,6 hPa 0,0 l/m 5,8 km/h (2 Bft) SO 135 3,1 C 3,3 C
23.11.2012 16:46 4,6 C 90 % 1018,5 hPa 0,0 l/m 3,6 km/h (1 Bft) SO 135 3,1 C 4,6 C
23.11.2012 16:51 4,6 C 90 % 1018,6 hPa 0,0 l/m 2,9 km/h (1 Bft) S-SO 157 3,1 C 4,6 C
23.11.2012 16:56 4,6 C 90 % 1018,6 hPa 0,0 l/m 2,5 km/h (1 Bft) S 180 3,1 C 4,6 C
23.11.2012 17:01 4,6 C 90 % 1018,5 hPa 0,0 l/m 4,3 km/h (1 Bft) S 180 3,1 C 4,6 C
23.11.2012 17:06 4,6 C 90 % 1018,4 hPa 0,0 l/m 1,4 km/h (1 Bft) S 180 3,1 C 4,6 C
23.11.2012 17:11 4,6 C 90 % 1018,5 hPa 0,0 l/m 0,0 km/h (0 Bft) S 180 3,1 C 4,6 C
23.11.2012 17:16 4,6 C 90 % 1018,5 hPa 0,0 l/m 4,3 km/h (1 Bft) SO 135 3,1 C 4,6 C
23.11.2012 17:21 4,6 C 90 % 1018,5 hPa 0,0 l/m 3,2 km/h (1 Bft) S-SO 157 3,1 C 4,6 C
23.11.2012 17:26 4,6 C 90 % 1018,5 hPa 0,0 l/m 2,5 km/h (1 Bft) SO 135 3,1 C 4,6 C
23.11.2012 17:31 4,6 C 90 % 1018,6 hPa 0,0 l/m 6,1 km/h (2 Bft) SW 225 3,1 C 3,2 C
23.11.2012 17:36 4,6 C 90 % 1018,5 hPa 0,0 l/m 6,1 km/h (2 Bft) SO 135 3,1 C 3,2 C
23.11.2012 17:41 4,6 C 90 % 1018,5 hPa 0,0 l/m 6,8 km/h (2 Bft) S-SO 157 3,1 C 3,0 C
23.11.2012 17:46 4,6 C 90 % 1018,5 hPa 0,0 l/m 6,5 km/h (2 Bft) S-SO 157 3,1 C 3,1 C
23.11.2012 17:51 4,6 C 90 % 1018,5 hPa 0,0 l/m 6,5 km/h (2 Bft) SW 225 3,1 C 3,1 C
23.11.2012 17:56 4,6 C 90 % 1018,5 hPa 0,0 l/m 5,0 km/h (1 Bft) S-SO 157 3,1 C 3,6 C
23.11.2012 18:01 4,5 C 90 % 1018,5 hPa 0,0 l/m 2,9 km/h (1 Bft) S-SW 202 3,0 C 4,5 C
23.11.2012 18:06 4,5 C 90 % 1018,5 hPa 0,0 l/m 4,0 km/h (1 Bft) S-SO 157 3,0 C 4,5 C
23.11.2012 18:11 4,5 C 90 % 1018,3 hPa 0,0 l/m 0,0 km/h (0 Bft) S-SW 202 3,0 C 4,5 C
23.11.2012 18:16 4,5 C 90 % 1018,3 hPa 0,0 l/m 1,8 km/h (1 Bft) S-SO 157 3,0 C 4,5 C
23.11.2012 18:21 4,4 C 90 % 1018,3 hPa 0,0 l/m 1,8 km/h (1 Bft) SO 135 2,9 C 4,4 C
23.11.2012 18:26 4,4 C 90 % 1018,4 hPa 0,0 l/m 4,3 km/h (1 Bft) S-SW 202 2,9 C 4,4 C
23.11.2012 18:31 4,4 C 90 % 1018,2 hPa 0,0 l/m 2,5 km/h (1 Bft) S-SW 202 2,9 C 4,4 C
23.11.2012 18:36 4,4 C 90 % 1018,2 hPa 0,0 l/m 4,3 km/h (1 Bft) S-SO 157 2,9 C 4,4 C
23.11.2012 18:41 4,4 C 90 % 1018,2 hPa 0,0 l/m 3,2 km/h (1 Bft) S-SW 202 2,9 C 4,4 C
23.11.2012 18:46 4,4 C 90 % 1017,9 hPa 0,0 l/m 4,7 km/h (1 Bft) S-SO 157 2,9 C 3,5 C
23.11.2012 18:51 4,4 C 90 % 1018,2 hPa 0,0 l/m 13,3 km/h (3 Bft) S 180 2,9 C 1,3 C
23.11.2012 18:56 4,4 C 90 % 1018,1 hPa 0,0 l/m 7,6 km/h (2 Bft) SO 135 2,9 C 2,5 C
23.11.2012 19:01 4,5 C 90 % 1018,2 hPa 0,0 l/m 4,3 km/h (1 Bft) S-SO 157 3,0 C 4,5 C
23.11.2012 19:06 4,6 C 90 % 1018,1 hPa 0,0 l/m 0,0 km/h (0 Bft) S-SW 202 3,1 C 4,6 C
23.11.2012 19:11 4,7 C 90 % 1018,1 hPa 0,0 l/m 4,0 km/h (1 Bft) S-SW 202 3,2 C 4,7 C
23.11.2012 19:16 4,8 C 90 % 1018,3 hPa 0,0 l/m 0,0 km/h (0 Bft) SO 135 3,3 C 4,8 C
23.11.2012 19:21 4,9 C 91 % 1018,5 hPa 0,0 l/m 4,0 km/h (1 Bft) S-SW 202 3,6 C 4,9 C
23.11.2012 19:26 4,9 C 91 % 1018,3 hPa 0,0 l/m 2,2 km/h (1 Bft) S 180 3,6 C 4,9 C
23.11.2012 19:31 4,9 C 90 % 1018,7 hPa 0,0 l/m 10,1 km/h (2 Bft) S-SW 202 3,4 C 2,5 C
23.11.2012 19:36 5,0 C 91 % 1018,7 hPa 0,5 l/m 6,8 km/h (2 Bft) S-SO 157 3,7 C 3,5 C
23.11.2012 19:41 5,1 C 91 % 1018,6 hPa 0,0 l/m 4,0 km/h (1 Bft) S-SW 202 3,8 C 5,1 C
23.11.2012 19:46 5,1 C 91 % 1018,6 hPa 0,0 l/m 6,1 km/h (2 Bft) S-SW 202 3,8 C 3,8 C
23.11.2012 19:51 5,1 C 91 % 1018,6 hPa 0,0 l/m 2,2 km/h (1 Bft) S-SW 202 3,8 C 5,1 C
23.11.2012 19:56 5,2 C 91 % 1018,6 hPa 0,0 l/m 8,6 km/h (2 Bft) S-SW 202 3,9 C 3,2 C
23.11.2012 20:01 5,2 C 91 % 1018,6 hPa 0,0 l/m 9,4 km/h (2 Bft) W-SW 247 3,9 C 3,0 C
23.11.2012 20:06 5,2 C 91 % 1018,6 hPa 0,0 l/m 6,1 km/h (2 Bft) S-SW 202 3,9 C 3,9 C
23.11.2012 20:11 5,3 C 91 % 1018,7 hPa 0,5 l/m 4,3 km/h (1 Bft) SW 225 4,0 C 5,3 C
23.11.2012 20:16 5,3 C 91 % 1018,7 hPa 0,0 l/m 5,0 km/h (1 Bft) S 180 4,0 C 4,4 C
23.11.2012 20:21 5,3 C 91 % 1018,6 hPa 0,0 l/m 4,0 km/h (1 Bft) W-SW 247 4,0 C 5,3 C
23.11.2012 20:26 5,2 C 91 % 1018,9 hPa 0,0 l/m 7,2 km/h (2 Bft) SW 225 3,9 C 3,6 C
23.11.2012 20:31 5,3 C 91 % 1019,0 hPa 0,5 l/m 6,8 km/h (2 Bft) S-SW 202 4,0 C 3,8 C
23.11.2012 20:36 5,2 C 91 % 1018,9 hPa 0,0 l/m 3,6 km/h (1 Bft) W-SW 247 3,9 C 5,2 C
23.11.2012 20:41 5,3 C 91 % 1018,9 hPa 0,0 l/m 8,3 km/h (2 Bft) S 180 4,0 C 3,4 C
23.11.2012 20:46 5,2 C 91 % 1018,9 hPa 0,5 l/m 6,5 km/h (2 Bft) S-SW 202 3,9 C 3,8 C
23.11.2012 20:51 5,2 C 91 % 1018,9 hPa 0,0 l/m 2,5 km/h (1 Bft) S-SW 202 3,9 C 5,2 C
23.11.2012 20:56 5,2 C 92 % 1019,1 hPa 0,0 l/m 6,5 km/h (2 Bft) W-SW 247 4,0 C 3,8 C
23.11.2012 21:01 5,2 C 92 % 1019,0 hPa 0,5 l/m 5,0 km/h (1 Bft) S-SW 202 4,0 C 4,3 C
23.11.2012 21:06 5,2 C 92 % 1019,0 hPa 0,0 l/m 5,8 km/h (2 Bft) S-SW 202 4,0 C 4,0 C
23.11.2012 21:11 5,3 C 92 % 1018,9 hPa 0,0 l/m 3,6 km/h (1 Bft) SW 225 4,1 C 5,3 C
23.11.2012 21:16 5,3 C 92 % 1019,0 hPa 0,0 l/m 1,8 km/h (1 Bft) S-SW 202 4,1 C 5,3 C
23.11.2012 21:21 5,3 C 92 % 1018,9 hPa 0,5 l/m 4,3 km/h (1 Bft) S-SW 202 4,1 C 5,3 C
23.11.2012 21:26 5,3 C 92 % 1018,9 hPa 0,0 l/m 7,6 km/h (2 Bft) S 180 4,1 C 3,6 C
23.11.2012 21:31 5,3 C 92 % 1018,9 hPa 0,0 l/m 4,7 km/h (1 Bft) S-SW 202 4,1 C 4,5 C
23.11.2012 21:36 5,3 C 92 % 1019,0 hPa 0,0 l/m 2,2 km/h (1 Bft) S-SW 202 4,1 C 5,3 C
23.11.2012 21:41 5,3 C 92 % 1018,9 hPa 0,0 l/m 5,0 km/h (1 Bft) S-SW 202 4,1 C 4,4 C
23.11.2012 21:46 5,3 C 92 % 1018,9 hPa 0,0 l/m 1,4 km/h (1 Bft) SW 225 4,1 C 5,3 C
23.11.2012 21:51 5,2 C 92 % 1018,8 hPa 0,0 l/m 2,9 km/h (1 Bft) S-SW 202 4,0 C 5,2 C
23.11.2012 21:56 5,3 C 92 % 1018,9 hPa 0,0 l/m 3,2 km/h (1 Bft) S 180 4,1 C 5,3 C
23.11.2012 22:01 5,3 C 92 % 1018,8 hPa 0,0 l/m 8,3 km/h (2 Bft) S-SW 202 4,1 C 3,4 C
23.11.2012 22:06 5,3 C 92 % 1019,1 hPa 0,0 l/m 9,7 km/h (2 Bft) S-SW 202 4,1 C 3,1 C
23.11.2012 22:11 5,3 C 92 % 1019,1 hPa 0,0 l/m 5,0 km/h (1 Bft) S-SW 202 4,1 C 4,4 C
23.11.2012 22:16 5,3 C 92 % 1019,1 hPa 0,5 l/m 5,0 km/h (1 Bft) S 180 4,1 C 4,4 C
23.11.2012 22:21 5,3 C 92 % 1018,9 hPa 0,0 l/m 2,9 km/h (1 Bft) S 180 4,1 C 5,3 C
23.11.2012 22:26 5,3 C 92 % 1019,0 hPa 0,0 l/m 3,6 km/h (1 Bft) S-SW 202 4,1 C 5,3 C
23.11.2012 22:31 5,3 C 93 % 1019,0 hPa 0,0 l/m 4,3 km/h (1 Bft) S 180 4,3 C 5,3 C
23.11.2012 22:36 5,3 C 93 % 1019,0 hPa 0,0 l/m 6,1 km/h (2 Bft) S 180 4,3 C 4,0 C
23.11.2012 22:41 5,3 C 93 % 1019,2 hPa 0,0 l/m 4,7 km/h (1 Bft) S-SO 157 4,3 C 4,5 C
23.11.2012 22:46 5,3 C 93 % 1019,1 hPa 0,0 l/m 6,5 km/h (2 Bft) S-SW 202 4,3 C 3,9 C
23.11.2012 22:51 5,3 C 93 % 1019,2 hPa 0,0 l/m 2,5 km/h (1 Bft) S-SW 202 4,3 C 5,3 C
23.11.2012 22:56 5,3 C 93 % 1019,2 hPa 0,0 l/m 5,0 km/h (1 Bft) SW 225 4,3 C 4,4 C
23.11.2012 23:01 5,4 C 93 % 1019,3 hPa 0,0 l/m 4,7 km/h (1 Bft) SW 225 4,4 C 4,7 C
23.11.2012 23:06 5,4 C 93 % 1019,1 hPa 0,0 l/m 5,0 km/h (1 Bft) S 180 4,4 C 4,5 C
23.11.2012 23:11 5,4 C 93 % 1019,1 hPa 0,0 l/m 4,0 km/h (1 Bft) SW 225 4,4 C 5,4 C
23.11.2012 23:16 5,4 C 93 % 1019,2 hPa 0,0 l/m 7,2 km/h (2 Bft) SW 225 4,4 C 3,8 C
23.11.2012 23:21 5,4 C 93 % 1019,3 hPa 0,0 l/m 3,6 km/h (1 Bft) S 180 4,4 C 5,4 C
23.11.2012 23:26 5,4 C 93 % 1019,2 hPa 0,0 l/m 3,6 km/h (1 Bft) S-SW 202 4,4 C 5,4 C
23.11.2012 23:31 5,4 C 93 % 1019,3 hPa 0,0 l/m 6,1 km/h (2 Bft) S-SW 202 4,4 C 4,2 C
23.11.2012 23:36 5,4 C 93 % 1019,3 hPa 0,5 l/m 6,1 km/h (2 Bft) S 180 4,4 C 4,2 C
23.11.2012 23:41 5,5 C 93 % 1019,3 hPa 0,0 l/m 5,8 km/h (2 Bft) SW 225 4,5 C 4,4 C
23.11.2012 23:46 5,5 C 93 % 1019,3 hPa 0,0 l/m 2,5 km/h (1 Bft) S-SW 202 4,5 C 5,5 C
23.11.2012 23:51 5,5 C 93 % 1019,2 hPa 0,0 l/m 5,0 km/h (1 Bft) SW 225 4,5 C 4,7 C
23.11.2012 23:56 5,5 C 93 % 1019,2 hPa 0,0 l/m 6,1 km/h (2 Bft) S 180 4,5 C 4,3 C
_ Min-Zeit 05:41 12:56 18:46 - 00:31 - - 05:41 08:16
Minimum _ -0,2 C 89 % 1017,9 hPa - 0,0 km/h (0 Bft) - - -1,2 C -2,7 C
_ Max-Zeit 13:01 09:31 00:06 19:36 12:36 - - 23:41 13:16
Maximum _ 5,6 C 94 % 1023,4 hPa 0,5 l/m 14,8 km/h
SO (3 Bft)
- - 4,5 C 5,6 C
Durchschnitt _ 3,0 C 92 % 1020,2 hPa #4,1 l/m 4,3 km/h (1 Bft) SO - 1,8 C 2,3 C
(c) by David Heller